sensor_id;sensor_type;location;lat;lon;timestamp;P1;durP1;ratioP1;P2;durP2;ratioP2
9222;SDS011;7557;51.698;3.942;2023-04-05T00:02:14;13.87;;;10.97;;
9222;SDS011;7557;51.698;3.942;2023-04-05T00:04:44;13.47;;;10.57;;
9222;SDS011;7557;51.698;3.942;2023-04-05T00:07:18;13.10;;;10.43;;
9222;SDS011;7557;51.698;3.942;2023-04-05T00:09:46;16.00;;;11.53;;
9222;SDS011;7557;51.698;3.942;2023-04-05T00:12:15;13.83;;;11.57;;
9222;SDS011;7557;51.698;3.942;2023-04-05T00:14:43;11.50;;;10.43;;
9222;SDS011;7557;51.698;3.942;2023-04-05T00:17:11;12.90;;;10.93;;
9222;SDS011;7557;51.698;3.942;2023-04-05T00:19:39;12.43;;;10.80;;
9222;SDS011;7557;51.698;3.942;2023-04-05T00:22:07;14.50;;;10.97;;
9222;SDS011;7557;51.698;3.942;2023-04-05T00:24:39;11.87;;;10.67;;
9222;SDS011;7557;51.698;3.942;2023-04-05T00:27:07;11.73;;;10.53;;
9222;SDS011;7557;51.698;3.942;2023-04-05T00:29:35;14.93;;;11.13;;
9222;SDS011;7557;51.698;3.942;2023-04-05T00:32:03;12.53;;;10.80;;
9222;SDS011;7557;51.698;3.942;2023-04-05T00:34:31;11.63;;;10.23;;
9222;SDS011;7557;51.698;3.942;2023-04-05T00:36:59;11.73;;;10.43;;
9222;SDS011;7557;51.698;3.942;2023-04-05T00:39:26;12.67;;;11.03;;
9222;SDS011;7557;51.698;3.942;2023-04-05T00:41:55;12.70;;;11.40;;
9222;SDS011;7557;51.698;3.942;2023-04-05T00:44:23;15.20;;;11.30;;
9222;SDS011;7557;51.698;3.942;2023-04-05T00:46:50;14.97;;;9.53;;
9222;SDS011;7557;51.698;3.942;2023-04-05T00:49:18;14.87;;;11.00;;
9222;SDS011;7557;51.698;3.942;2023-04-05T00:51:45;13.23;;;11.00;;
9222;SDS011;7557;51.698;3.942;2023-04-05T00:54:14;17.43;;;11.77;;
9222;SDS011;7557;51.698;3.942;2023-04-05T00:56:41;12.27;;;10.80;;
9222;SDS011;7557;51.698;3.942;2023-04-05T00:59:11;12.33;;;11.03;;
9222;SDS011;7557;51.698;3.942;2023-04-05T01:01:39;15.63;;;11.37;;
9222;SDS011;7557;51.698;3.942;2023-04-05T01:04:07;16.53;;;12.30;;
9222;SDS011;7557;51.698;3.942;2023-04-05T01:06:47;12.80;;;11.50;;
9222;SDS011;7557;51.698;3.942;2023-04-05T01:09:30;17.93;;;11.73;;
9222;SDS011;7557;51.698;3.942;2023-04-05T01:12:04;16.07;;;12.10;;
9222;SDS011;7557;51.698;3.942;2023-04-05T01:14:43;14.90;;;12.30;;
9222;SDS011;7557;51.698;3.942;2023-04-05T01:17:12;12.60;;;11.30;;
9222;SDS011;7557;51.698;3.942;2023-04-05T01:19:40;13.20;;;11.70;;
9222;SDS011;7557;51.698;3.942;2023-04-05T01:25:26;11.87;;;10.70;;
9222;SDS011;7557;51.698;3.942;2023-04-05T01:28:22;13.40;;;11.00;;
9222;SDS011;7557;51.698;3.942;2023-04-05T01:31:17;16.97;;;11.60;;
9222;SDS011;7557;51.698;3.942;2023-04-05T01:33:51;12.70;;;11.50;;
9222;SDS011;7557;51.698;3.942;2023-04-05T01:36:26;12.23;;;11.03;;
9222;SDS011;7557;51.698;3.942;2023-04-05T01:38:59;11.17;;;9.87;;
9222;SDS011;7557;51.698;3.942;2023-04-05T01:41:30;11.67;;;10.27;;
9222;SDS011;7557;51.698;3.942;2023-04-05T01:43:58;10.93;;;9.80;;
9222;SDS011;7557;51.698;3.942;2023-04-05T01:46:27;12.67;;;11.10;;
9222;SDS011;7557;51.698;3.942;2023-04-05T01:48:55;13.83;;;11.43;;
9222;SDS011;7557;51.698;3.942;2023-04-05T01:51:22;17.63;;;12.13;;
9222;SDS011;7557;51.698;3.942;2023-04-05T01:53:52;14.47;;;12.27;;
9222;SDS011;7557;51.698;3.942;2023-04-05T01:56:20;13.83;;;11.67;;
9222;SDS011;7557;51.698;3.942;2023-04-05T01:58:47;18.33;;;12.57;;
9222;SDS011;7557;51.698;3.942;2023-04-05T02:01:15;12.67;;;10.80;;
9222;SDS011;7557;51.698;3.942;2023-04-05T02:03:44;13.33;;;11.93;;
9222;SDS011;7557;51.698;3.942;2023-04-05T02:06:12;14.90;;;12.93;;
9222;SDS011;7557;51.698;3.942;2023-04-05T02:08:39;13.00;;;11.23;;
9222;SDS011;7557;51.698;3.942;2023-04-05T02:11:06;17.27;;;12.73;;
9222;SDS011;7557;51.698;3.942;2023-04-05T02:13:34;14.73;;;12.87;;
9222;SDS011;7557;51.698;3.942;2023-04-05T02:16:01;17.13;;;13.67;;
9222;SDS011;7557;51.698;3.942;2023-04-05T02:18:29;17.70;;;14.17;;
9222;SDS011;7557;51.698;3.942;2023-04-05T02:21:02;16.97;;;13.87;;
9222;SDS011;7557;51.698;3.942;2023-04-05T02:23:30;18.50;;;13.50;;
9222;SDS011;7557;51.698;3.942;2023-04-05T02:25:58;15.80;;;14.10;;
9222;SDS011;7557;51.698;3.942;2023-04-05T02:28:26;14.97;;;13.37;;
9222;SDS011;7557;51.698;3.942;2023-04-05T02:30:54;15.17;;;12.47;;
9222;SDS011;7557;51.698;3.942;2023-04-05T02:33:21;19.10;;;14.57;;
9222;SDS011;7557;51.698;3.942;2023-04-05T02:35:49;19.13;;;14.83;;
9222;SDS011;7557;51.698;3.942;2023-04-05T02:38:20;17.80;;;14.87;;
9222;SDS011;7557;51.698;3.942;2023-04-05T02:40:47;17.47;;;13.37;;
9222;SDS011;7557;51.698;3.942;2023-04-05T02:43:15;15.67;;;13.97;;
9222;SDS011;7557;51.698;3.942;2023-04-05T02:45:43;18.30;;;14.73;;
9222;SDS011;7557;51.698;3.942;2023-04-05T02:48:11;16.17;;;13.47;;
9222;SDS011;7557;51.698;3.942;2023-04-05T02:50:38;15.03;;;13.50;;
9222;SDS011;7557;51.698;3.942;2023-04-05T02:53:06;19.57;;;15.60;;
9222;SDS011;7557;51.698;3.942;2023-04-05T02:55:35;18.93;;;15.43;;
9222;SDS011;7557;51.698;3.942;2023-04-05T02:58:06;17.10;;;14.53;;
9222;SDS011;7557;51.698;3.942;2023-04-05T03:00:33;20.60;;;15.10;;
9222;SDS011;7557;51.698;3.942;2023-04-05T03:03:02;20.07;;;16.47;;
9222;SDS011;7557;51.698;3.942;2023-04-05T03:05:30;16.73;;;14.60;;
9222;SDS011;7557;51.698;3.942;2023-04-05T03:07:57;19.40;;;15.50;;
9222;SDS011;7557;51.698;3.942;2023-04-05T03:10:26;17.83;;;15.27;;
9222;SDS011;7557;51.698;3.942;2023-04-05T03:13:00;22.27;;;17.00;;
9222;SDS011;7557;51.698;3.942;2023-04-05T03:15:27;20.50;;;14.73;;
9222;SDS011;7557;51.698;3.942;2023-04-05T03:17:57;20.57;;;14.70;;
9222;SDS011;7557;51.698;3.942;2023-04-05T03:20:24;19.13;;;16.43;;
9222;SDS011;7557;51.698;3.942;2023-04-05T03:22:52;16.37;;;14.77;;
9222;SDS011;7557;51.698;3.942;2023-04-05T03:25:19;17.97;;;14.47;;
9222;SDS011;7557;51.698;3.942;2023-04-05T03:27:47;18.93;;;16.07;;
9222;SDS011;7557;51.698;3.942;2023-04-05T03:30:18;21.23;;;15.10;;
9222;SDS011;7557;51.698;3.942;2023-04-05T03:32:46;17.23;;;14.07;;
9222;SDS011;7557;51.698;3.942;2023-04-05T03:35:14;20.10;;;16.10;;
9222;SDS011;7557;51.698;3.942;2023-04-05T03:37:43;18.00;;;14.87;;
9222;SDS011;7557;51.698;3.942;2023-04-05T03:40:11;18.83;;;15.37;;
9222;SDS011;7557;51.698;3.942;2023-04-05T03:42:39;16.40;;;13.93;;
9222;SDS011;7557;51.698;3.942;2023-04-05T03:45:06;18.27;;;14.27;;
9222;SDS011;7557;51.698;3.942;2023-04-05T03:47:35;17.13;;;15.00;;
9222;SDS011;7557;51.698;3.942;2023-04-05T03:50:03;20.93;;;18.20;;
9222;SDS011;7557;51.698;3.942;2023-04-05T03:52:32;18.53;;;16.53;;
9222;SDS011;7557;51.698;3.942;2023-04-05T03:54:59;18.40;;;15.10;;
9222;SDS011;7557;51.698;3.942;2023-04-05T03:57:26;18.50;;;15.47;;
9222;SDS011;7557;51.698;3.942;2023-04-05T03:59:54;23.30;;;16.20;;
9222;SDS011;7557;51.698;3.942;2023-04-05T04:02:21;20.30;;;15.10;;
9222;SDS011;7557;51.698;3.942;2023-04-05T04:04:50;16.97;;;14.17;;
9222;SDS011;7557;51.698;3.942;2023-04-05T04:07:18;16.30;;;13.90;;
9222;SDS011;7557;51.698;3.942;2023-04-05T04:09:45;20.40;;;15.37;;
9222;SDS011;7557;51.698;3.942;2023-04-05T04:12:16;18.07;;;14.80;;
9222;SDS011;7557;51.698;3.942;2023-04-05T04:14:43;18.27;;;15.70;;
9222;SDS011;7557;51.698;3.942;2023-04-05T04:17:11;19.37;;;15.77;;
9222;SDS011;7557;51.698;3.942;2023-04-05T04:19:52;17.87;;;15.87;;
9222;SDS011;7557;51.698;3.942;2023-04-05T04:22:20;21.30;;;18.40;;
9222;SDS011;7557;51.698;3.942;2023-04-05T04:24:47;26.40;;;19.87;;
9222;SDS011;7557;51.698;3.942;2023-04-05T04:27:15;23.70;;;18.93;;
9222;SDS011;7557;51.698;3.942;2023-04-05T04:29:42;25.07;;;20.57;;
9222;SDS011;7557;51.698;3.942;2023-04-05T04:32:10;24.40;;;20.97;;
9222;SDS011;7557;51.698;3.942;2023-04-05T04:34:39;26.90;;;22.07;;
9222;SDS011;7557;51.698;3.942;2023-04-05T04:37:12;26.50;;;21.47;;
9222;SDS011;7557;51.698;3.942;2023-04-05T04:39:43;26.90;;;21.80;;
9222;SDS011;7557;51.698;3.942;2023-04-05T04:42:13;30.40;;;22.97;;
9222;SDS011;7557;51.698;3.942;2023-04-05T04:44:46;27.13;;;21.47;;
9222;SDS011;7557;51.698;3.942;2023-04-05T04:47:14;28.10;;;20.00;;
9222;SDS011;7557;51.698;3.942;2023-04-05T04:49:41;27.13;;;20.70;;
9222;SDS011;7557;51.698;3.942;2023-04-05T04:52:09;25.50;;;19.67;;
9222;SDS011;7557;51.698;3.942;2023-04-05T04:54:37;25.37;;;20.57;;
9222;SDS011;7557;51.698;3.942;2023-04-05T04:57:06;25.40;;;19.53;;
9222;SDS011;7557;51.698;3.942;2023-04-05T04:59:34;26.23;;;20.33;;
9222;SDS011;7557;51.698;3.942;2023-04-05T05:02:01;25.67;;;20.70;;
9222;SDS011;7557;51.698;3.942;2023-04-05T05:04:29;24.73;;;19.07;;
9222;SDS011;7557;51.698;3.942;2023-04-05T05:06:59;25.90;;;20.43;;
9222;SDS011;7557;51.698;3.942;2023-04-05T05:09:26;25.70;;;20.33;;
9222;SDS011;7557;51.698;3.942;2023-04-05T05:11:55;28.27;;;22.60;;
9222;SDS011;7557;51.698;3.942;2023-04-05T05:14:23;28.80;;;21.57;;
9222;SDS011;7557;51.698;3.942;2023-04-05T05:16:51;27.97;;;22.27;;
9222;SDS011;7557;51.698;3.942;2023-04-05T05:19:19;30.90;;;22.20;;
9222;SDS011;7557;51.698;3.942;2023-04-05T05:21:47;30.30;;;21.17;;
9222;SDS011;7557;51.698;3.942;2023-04-05T05:24:14;28.70;;;21.77;;
9222;SDS011;7557;51.698;3.942;2023-04-05T05:26:42;28.13;;;19.70;;
9222;SDS011;7557;51.698;3.942;2023-04-05T05:29:11;22.30;;;17.47;;
9222;SDS011;7557;51.698;3.942;2023-04-05T05:31:38;24.03;;;19.43;;
9222;SDS011;7557;51.698;3.942;2023-04-05T05:34:06;21.60;;;19.00;;
9222;SDS011;7557;51.698;3.942;2023-04-05T05:36:33;22.03;;;19.10;;
9222;SDS011;7557;51.698;3.942;2023-04-05T05:39:01;26.20;;;19.87;;
9222;SDS011;7557;51.698;3.942;2023-04-05T05:41:30;25.63;;;19.63;;
9222;SDS011;7557;51.698;3.942;2023-04-05T05:43:57;25.40;;;19.37;;
9222;SDS011;7557;51.698;3.942;2023-04-05T05:46:26;21.57;;;18.40;;
9222;SDS011;7557;51.698;3.942;2023-04-05T05:48:54;24.03;;;19.40;;
9222;SDS011;7557;51.698;3.942;2023-04-05T05:51:21;24.73;;;20.30;;
9222;SDS011;7557;51.698;3.942;2023-04-05T05:53:49;24.53;;;20.10;;
9222;SDS011;7557;51.698;3.942;2023-04-05T05:56:16;19.80;;;17.23;;
9222;SDS011;7557;51.698;3.942;2023-04-05T05:58:44;23.10;;;19.50;;
9222;SDS011;7557;51.698;3.942;2023-04-05T06:01:12;24.27;;;19.50;;
9222;SDS011;7557;51.698;3.942;2023-04-05T06:03:42;24.80;;;21.57;;
9222;SDS011;7557;51.698;3.942;2023-04-05T06:06:10;26.03;;;21.53;;
9222;SDS011;7557;51.698;3.942;2023-04-05T06:08:37;31.20;;;21.97;;
9222;SDS011;7557;51.698;3.942;2023-04-05T06:11:05;23.70;;;21.07;;
9222;SDS011;7557;51.698;3.942;2023-04-05T06:13:32;25.23;;;20.87;;
9222;SDS011;7557;51.698;3.942;2023-04-05T06:16:00;25.53;;;20.80;;
9222;SDS011;7557;51.698;3.942;2023-04-05T06:18:27;24.93;;;20.40;;
9222;SDS011;7557;51.698;3.942;2023-04-05T06:20:56;25.90;;;21.73;;
9222;SDS011;7557;51.698;3.942;2023-04-05T06:23:24;24.57;;;21.23;;
9222;SDS011;7557;51.698;3.942;2023-04-05T06:25:51;28.97;;;20.63;;
9222;SDS011;7557;51.698;3.942;2023-04-05T06:28:20;22.07;;;18.63;;
9222;SDS011;7557;51.698;3.942;2023-04-05T06:30:48;23.93;;;20.53;;
9222;SDS011;7557;51.698;3.942;2023-04-05T06:33:15;23.33;;;20.97;;
9222;SDS011;7557;51.698;3.942;2023-04-05T06:35:42;28.00;;;22.50;;
9222;SDS011;7557;51.698;3.942;2023-04-05T06:38:11;25.30;;;22.53;;
9222;SDS011;7557;51.698;3.942;2023-04-05T06:40:39;25.30;;;21.70;;
9222;SDS011;7557;51.698;3.942;2023-04-05T06:43:06;28.47;;;22.37;;
9222;SDS011;7557;51.698;3.942;2023-04-05T06:45:34;28.13;;;22.60;;
9222;SDS011;7557;51.698;3.942;2023-04-05T06:48:02;31.80;;;23.37;;
9222;SDS011;7557;51.698;3.942;2023-04-05T06:50:30;28.10;;;22.63;;
9222;SDS011;7557;51.698;3.942;2023-04-05T06:52:58;25.67;;;21.90;;
9222;SDS011;7557;51.698;3.942;2023-04-05T06:55:27;24.97;;;21.50;;
9222;SDS011;7557;51.698;3.942;2023-04-05T06:57:54;24.63;;;22.00;;
9222;SDS011;7557;51.698;3.942;2023-04-05T07:00:23;26.73;;;22.03;;
9222;SDS011;7557;51.698;3.942;2023-04-05T07:02:51;24.03;;;21.53;;
9222;SDS011;7557;51.698;3.942;2023-04-05T07:05:18;24.60;;;20.20;;
9222;SDS011;7557;51.698;3.942;2023-04-05T07:07:46;24.53;;;21.73;;
9222;SDS011;7557;51.698;3.942;2023-04-05T07:10:13;25.37;;;21.47;;
9222;SDS011;7557;51.698;3.942;2023-04-05T07:12:42;24.77;;;21.60;;
9222;SDS011;7557;51.698;3.942;2023-04-05T07:15:11;26.57;;;20.97;;
9222;SDS011;7557;51.698;3.942;2023-04-05T07:17:38;23.57;;;20.57;;
9222;SDS011;7557;51.698;3.942;2023-04-05T07:20:06;24.97;;;21.57;;
9222;SDS011;7557;51.698;3.942;2023-04-05T07:22:34;25.97;;;20.93;;
9222;SDS011;7557;51.698;3.942;2023-04-05T07:25:01;25.93;;;21.60;;
9222;SDS011;7557;51.698;3.942;2023-04-05T07:27:29;26.13;;;22.13;;
9222;SDS011;7557;51.698;3.942;2023-04-05T07:29:58;25.87;;;22.13;;
9222;SDS011;7557;51.698;3.942;2023-04-05T07:32:26;24.30;;;21.70;;
9222;SDS011;7557;51.698;3.942;2023-04-05T07:34:53;22.87;;;19.77;;
9222;SDS011;7557;51.698;3.942;2023-04-05T07:37:20;24.93;;;20.50;;
9222;SDS011;7557;51.698;3.942;2023-04-05T07:39:48;19.43;;;16.67;;
9222;SDS011;7557;51.698;3.942;2023-04-05T07:42:15;18.80;;;16.87;;
9222;SDS011;7557;51.698;3.942;2023-04-05T07:44:45;20.83;;;16.60;;
9222;SDS011;7557;51.698;3.942;2023-04-05T07:47:14;19.73;;;17.57;;
9222;SDS011;7557;51.698;3.942;2023-04-05T07:49:42;20.30;;;18.10;;
9222;SDS011;7557;51.698;3.942;2023-04-05T07:52:09;19.97;;;17.97;;
9222;SDS011;7557;51.698;3.942;2023-04-05T07:54:36;19.97;;;17.67;;
9222;SDS011;7557;51.698;3.942;2023-04-05T07:57:05;21.20;;;18.43;;
9222;SDS011;7557;51.698;3.942;2023-04-05T07:59:33;21.13;;;17.93;;
9222;SDS011;7557;51.698;3.942;2023-04-05T08:02:00;19.27;;;17.25;;
9222;SDS011;7557;51.698;3.942;2023-04-05T08:04:29;17.42;;;15.52;;
9222;SDS011;7557;51.698;3.942;2023-04-05T08:06:57;16.05;;;14.15;;
9222;SDS011;7557;51.698;3.942;2023-04-05T08:09:24;16.00;;;14.30;;
9222;SDS011;7557;51.698;3.942;2023-04-05T08:11:52;14.45;;;12.70;;
9222;SDS011;7557;51.698;3.942;2023-04-05T08:14:21;16.75;;;12.68;;
9222;SDS011;7557;51.698;3.942;2023-04-05T08:16:48;13.90;;;12.48;;
9222;SDS011;7557;51.698;3.942;2023-04-05T08:19:16;15.07;;;12.25;;
9222;SDS011;7557;51.698;3.942;2023-04-05T08:21:45;14.77;;;12.57;;
9222;SDS011;7557;51.698;3.942;2023-04-05T08:24:12;15.75;;;12.88;;
9222;SDS011;7557;51.698;3.942;2023-04-05T08:26:40;17.88;;;12.73;;
9222;SDS011;7557;51.698;3.942;2023-04-05T08:29:08;17.38;;;12.93;;
9222;SDS011;7557;51.698;3.942;2023-04-05T08:31:35;13.70;;;12.02;;
9222;SDS011;7557;51.698;3.942;2023-04-05T08:34:03;13.70;;;11.75;;
9222;SDS011;7557;51.698;3.942;2023-04-05T08:36:32;15.63;;;12.35;;
9222;SDS011;7557;51.698;3.942;2023-04-05T08:39:01;14.63;;;12.32;;
9222;SDS011;7557;51.698;3.942;2023-04-05T08:41:31;14.15;;;12.02;;
9222;SDS011;7557;51.698;3.942;2023-04-05T08:44:01;18.15;;;12.57;;
9222;SDS011;7557;51.698;3.942;2023-04-05T08:46:30;18.67;;;13.00;;
9222;SDS011;7557;51.698;3.942;2023-04-05T08:48:59;20.30;;;14.60;;
9222;SDS011;7557;51.698;3.942;2023-04-05T08:51:31;16.95;;;13.02;;
9222;SDS011;7557;51.698;3.942;2023-04-05T08:54:04;16.42;;;12.65;;
9222;SDS011;7557;51.698;3.942;2023-04-05T08:56:33;15.60;;;13.00;;
9222;SDS011;7557;51.698;3.942;2023-04-05T08:59:02;16.75;;;12.70;;
9222;SDS011;7557;51.698;3.942;2023-04-05T09:01:31;15.35;;;12.70;;
9222;SDS011;7557;51.698;3.942;2023-04-05T09:04:00;17.70;;;13.50;;
9222;SDS011;7557;51.698;3.942;2023-04-05T09:06:32;17.45;;;12.93;;
9222;SDS011;7557;51.698;3.942;2023-04-05T09:09:01;17.20;;;13.25;;
9222;SDS011;7557;51.698;3.942;2023-04-05T09:11:34;16.85;;;12.90;;
9222;SDS011;7557;51.698;3.942;2023-04-05T09:14:01;16.27;;;12.85;;
9222;SDS011;7557;51.698;3.942;2023-04-05T09:16:29;14.77;;;12.75;;
9222;SDS011;7557;51.698;3.942;2023-04-05T09:18:59;12.63;;;11.30;;
9222;SDS011;7557;51.698;3.942;2023-04-05T09:21:26;12.10;;;10.68;;
9222;SDS011;7557;51.698;3.942;2023-04-05T09:23:54;13.18;;;10.57;;
9222;SDS011;7557;51.698;3.942;2023-04-05T09:26:24;13.77;;;11.30;;
9222;SDS011;7557;51.698;3.942;2023-04-05T09:28:51;15.23;;;11.98;;
9222;SDS011;7557;51.698;3.942;2023-04-05T09:31:28;14.00;;;10.60;;
9222;SDS011;7557;51.698;3.942;2023-04-05T09:33:56;9.55;;;8.38;;
9222;SDS011;7557;51.698;3.942;2023-04-05T09:36:25;13.38;;;10.43;;
9222;SDS011;7557;51.698;3.942;2023-04-05T09:39:02;12.82;;;10.40;;
9222;SDS011;7557;51.698;3.942;2023-04-05T09:41:33;11.50;;;9.65;;
9222;SDS011;7557;51.698;3.942;2023-04-05T09:44:01;11.40;;;9.27;;
9222;SDS011;7557;51.698;3.942;2023-04-05T09:46:29;9.82;;;8.82;;
9222;SDS011;7557;51.698;3.942;2023-04-05T09:48:58;12.68;;;10.23;;
9222;SDS011;7557;51.698;3.942;2023-04-05T09:51:33;12.20;;;10.45;;
9222;SDS011;7557;51.698;3.942;2023-04-05T09:54:03;14.88;;;10.52;;
9222;SDS011;7557;51.698;3.942;2023-04-05T09:56:33;12.23;;;10.55;;
9222;SDS011;7557;51.698;3.942;2023-04-05T09:59:01;13.70;;;10.70;;
9222;SDS011;7557;51.698;3.942;2023-04-05T10:01:33;11.98;;;10.65;;
9222;SDS011;7557;51.698;3.942;2023-04-05T10:04:01;9.80;;;8.80;;
9222;SDS011;7557;51.698;3.942;2023-04-05T10:06:35;10.48;;;9.48;;
9222;SDS011;7557;51.698;3.942;2023-04-05T10:09:04;12.85;;;10.32;;
9222;SDS011;7557;51.698;3.942;2023-04-05T10:11:34;12.80;;;10.95;;
9222;SDS011;7557;51.698;3.942;2023-04-05T10:14:03;11.82;;;10.63;;
9222;SDS011;7557;51.698;3.942;2023-04-05T10:16:32;12.85;;;10.45;;
9222;SDS011;7557;51.698;3.942;2023-04-05T10:19:04;12.10;;;10.80;;
9222;SDS011;7557;51.698;3.942;2023-04-05T10:21:34;12.18;;;10.73;;
9222;SDS011;7557;51.698;3.942;2023-04-05T10:24:10;11.52;;;10.32;;
9222;SDS011;7557;51.698;3.942;2023-04-05T10:27:03;11.82;;;10.43;;
9222;SDS011;7557;51.698;3.942;2023-04-05T10:29:37;12.88;;;10.70;;
9222;SDS011;7557;51.698;3.942;2023-04-05T10:32:10;11.98;;;10.40;;
9222;SDS011;7557;51.698;3.942;2023-04-05T10:34:44;14.45;;;9.75;;
9222;SDS011;7557;51.698;3.942;2023-04-05T10:37:19;11.02;;;9.88;;
9222;SDS011;7557;51.698;3.942;2023-04-05T10:39:53;11.65;;;10.52;;
9222;SDS011;7557;51.698;3.942;2023-04-05T10:42:27;11.85;;;10.70;;
9222;SDS011;7557;51.698;3.942;2023-04-05T10:45:03;12.95;;;10.80;;
9222;SDS011;7557;51.698;3.942;2023-04-05T10:47:36;15.35;;;11.07;;
9222;SDS011;7557;51.698;3.942;2023-04-05T10:50:08;12.73;;;10.63;;
9222;SDS011;7557;51.698;3.942;2023-04-05T10:52:41;12.02;;;10.90;;
9222;SDS011;7557;51.698;3.942;2023-04-05T10:55:10;10.82;;;9.77;;
9222;SDS011;7557;51.698;3.942;2023-04-05T10:57:39;10.95;;;9.80;;
9222;SDS011;7557;51.698;3.942;2023-04-05T11:00:08;11.90;;;10.50;;
9222;SDS011;7557;51.698;3.942;2023-04-05T11:02:39;12.57;;;11.05;;
9222;SDS011;7557;51.698;3.942;2023-04-05T11:05:27;14.32;;;11.02;;
9222;SDS011;7557;51.698;3.942;2023-04-05T11:07:59;12.07;;;10.85;;
9222;SDS011;7557;51.698;3.942;2023-04-05T11:10:31;14.43;;;12.35;;
9222;SDS011;7557;51.698;3.942;2023-04-05T11:13:06;12.95;;;11.55;;
9222;SDS011;7557;51.698;3.942;2023-04-05T11:15:35;15.10;;;12.02;;
9222;SDS011;7557;51.698;3.942;2023-04-05T11:18:07;18.85;;;12.07;;
9222;SDS011;7557;51.698;3.942;2023-04-05T11:20:42;14.68;;;12.10;;
9222;SDS011;7557;51.698;3.942;2023-04-05T11:23:12;14.20;;;12.60;;
9222;SDS011;7557;51.698;3.942;2023-04-05T11:25:44;13.93;;;12.10;;
9222;SDS011;7557;51.698;3.942;2023-04-05T11:28:28;12.50;;;11.30;;
9222;SDS011;7557;51.698;3.942;2023-04-05T11:31:10;14.30;;;12.77;;
9222;SDS011;7557;51.698;3.942;2023-04-05T11:33:57;13.48;;;12.07;;
9222;SDS011;7557;51.698;3.942;2023-04-05T11:36:37;14.48;;;11.95;;
9222;SDS011;7557;51.698;3.942;2023-04-05T11:39:25;13.65;;;11.90;;
9222;SDS011;7557;51.698;3.942;2023-04-05T11:41:58;13.93;;;11.80;;
9222;SDS011;7557;51.698;3.942;2023-04-05T11:44:29;12.77;;;11.55;;
9222;SDS011;7557;51.698;3.942;2023-04-05T11:47:05;14.23;;;11.95;;
9222;SDS011;7557;51.698;3.942;2023-04-05T11:49:33;14.85;;;11.90;;
9222;SDS011;7557;51.698;3.942;2023-04-05T11:52:08;13.10;;;11.80;;
9222;SDS011;7557;51.698;3.942;2023-04-05T11:54:37;15.18;;;12.93;;
9222;SDS011;7557;51.698;3.942;2023-04-05T11:57:10;15.77;;;12.95;;
9222;SDS011;7557;51.698;3.942;2023-04-05T11:59:40;14.65;;;12.43;;
9222;SDS011;7557;51.698;3.942;2023-04-05T12:02:09;13.82;;;12.43;;
9222;SDS011;7557;51.698;3.942;2023-04-05T12:04:36;13.00;;;11.57;;
9222;SDS011;7557;51.698;3.942;2023-04-05T12:07:11;14.57;;;12.93;;
9222;SDS011;7557;51.698;3.942;2023-04-05T12:10:01;15.50;;;11.90;;
9222;SDS011;7557;51.698;3.942;2023-04-05T12:12:32;14.40;;;12.93;;
9222;SDS011;7557;51.698;3.942;2023-04-05T12:15:02;13.27;;;11.88;;
9222;SDS011;7557;51.698;3.942;2023-04-05T12:17:38;13.20;;;11.93;;
9222;SDS011;7557;51.698;3.942;2023-04-05T12:20:11;13.68;;;12.25;;
9222;SDS011;7557;51.698;3.942;2023-04-05T12:22:40;14.48;;;13.10;;
9222;SDS011;7557;51.698;3.942;2023-04-05T12:25:09;13.95;;;12.45;;
9222;SDS011;7557;51.698;3.942;2023-04-05T12:27:37;15.23;;;12.98;;
9222;SDS011;7557;51.698;3.942;2023-04-05T12:30:16;14.82;;;13.30;;
9222;SDS011;7557;51.698;3.942;2023-04-05T12:32:45;13.20;;;11.85;;
9222;SDS011;7557;51.698;3.942;2023-04-05T12:35:17;15.30;;;13.77;;
9222;SDS011;7557;51.698;3.942;2023-04-05T12:37:45;15.85;;;13.27;;
9222;SDS011;7557;51.698;3.942;2023-04-05T12:40:13;13.98;;;12.10;;
9222;SDS011;7557;51.698;3.942;2023-04-05T12:42:45;14.50;;;12.38;;
9222;SDS011;7557;51.698;3.942;2023-04-05T12:45:12;13.77;;;12.43;;
9222;SDS011;7557;51.698;3.942;2023-04-05T12:47:50;14.10;;;12.48;;
9222;SDS011;7557;51.698;3.942;2023-04-05T12:50:18;14.45;;;12.95;;
9222;SDS011;7557;51.698;3.942;2023-04-05T12:52:53;13.45;;;12.07;;
9222;SDS011;7557;51.698;3.942;2023-04-05T12:55:22;14.85;;;12.95;;
9222;SDS011;7557;51.698;3.942;2023-04-05T12:57:51;14.15;;;12.63;;
9222;SDS011;7557;51.698;3.942;2023-04-05T13:00:20;14.05;;;12.57;;
9222;SDS011;7557;51.698;3.942;2023-04-05T13:02:52;16.25;;;13.88;;
9222;SDS011;7557;51.698;3.942;2023-04-05T13:05:21;14.40;;;13.00;;
9222;SDS011;7557;51.698;3.942;2023-04-05T13:07:50;14.65;;;13.20;;
9222;SDS011;7557;51.698;3.942;2023-04-05T13:10:18;14.27;;;12.30;;
9222;SDS011;7557;51.698;3.942;2023-04-05T13:12:46;16.73;;;13.65;;
9222;SDS011;7557;51.698;3.942;2023-04-05T13:15:13;14.95;;;13.35;;
9222;SDS011;7557;51.698;3.942;2023-04-05T13:17:42;14.48;;;12.68;;
9222;SDS011;7557;51.698;3.942;2023-04-05T13:20:15;14.13;;;12.63;;
9222;SDS011;7557;51.698;3.942;2023-04-05T13:22:43;15.07;;;13.48;;
9222;SDS011;7557;51.698;3.942;2023-04-05T13:25:11;16.17;;;12.95;;
9222;SDS011;7557;51.698;3.942;2023-04-05T13:27:39;16.50;;;13.52;;
9222;SDS011;7557;51.698;3.942;2023-04-05T13:30:06;15.27;;;13.07;;
9222;SDS011;7557;51.698;3.942;2023-04-05T13:32:34;15.90;;;13.02;;
9222;SDS011;7557;51.698;3.942;2023-04-05T13:35:02;16.25;;;12.95;;
9222;SDS011;7557;51.698;3.942;2023-04-05T13:37:31;15.00;;;13.38;;
9222;SDS011;7557;51.698;3.942;2023-04-05T13:39:58;15.50;;;13.48;;
9222;SDS011;7557;51.698;3.942;2023-04-05T13:42:26;14.88;;;12.90;;
9222;SDS011;7557;51.698;3.942;2023-04-05T13:44:54;15.18;;;13.35;;
9222;SDS011;7557;51.698;3.942;2023-04-05T13:47:21;16.38;;;13.75;;
9222;SDS011;7557;51.698;3.942;2023-04-05T13:49:49;16.30;;;13.32;;
9222;SDS011;7557;51.698;3.942;2023-04-05T13:52:16;15.40;;;12.85;;
9222;SDS011;7557;51.698;3.942;2023-04-05T13:54:45;16.13;;;13.40;;
9222;SDS011;7557;51.698;3.942;2023-04-05T13:57:12;16.00;;;13.98;;
9222;SDS011;7557;51.698;3.942;2023-04-05T13:59:40;16.00;;;13.18;;
9222;SDS011;7557;51.698;3.942;2023-04-05T14:02:08;17.10;;;13.95;;
9222;SDS011;7557;51.698;3.942;2023-04-05T14:04:36;14.93;;;12.90;;
9222;SDS011;7557;51.698;3.942;2023-04-05T14:07:04;14.70;;;13.18;;
9222;SDS011;7557;51.698;3.942;2023-04-05T14:09:32;16.45;;;13.93;;
9222;SDS011;7557;51.698;3.942;2023-04-05T14:12:01;17.13;;;13.82;;
9222;SDS011;7557;51.698;3.942;2023-04-05T14:14:29;15.15;;;13.48;;
9222;SDS011;7557;51.698;3.942;2023-04-05T14:16:56;14.77;;;13.27;;
9222;SDS011;7557;51.698;3.942;2023-04-05T14:19:24;15.38;;;13.20;;
9222;SDS011;7557;51.698;3.942;2023-04-05T14:21:52;14.93;;;13.27;;
9222;SDS011;7557;51.698;3.942;2023-04-05T14:24:19;16.10;;;13.18;;
9222;SDS011;7557;51.698;3.942;2023-04-05T14:26:47;16.52;;;13.30;;
9222;SDS011;7557;51.698;3.942;2023-04-05T14:29:16;15.52;;;13.85;;
9222;SDS011;7557;51.698;3.942;2023-04-05T14:31:44;16.40;;;13.82;;
9222;SDS011;7557;51.698;3.942;2023-04-05T14:34:12;19.83;;;17.27;;
9222;SDS011;7557;51.698;3.942;2023-04-05T14:36:40;21.30;;;17.25;;
9222;SDS011;7557;51.698;3.942;2023-04-05T14:39:10;18.17;;;15.38;;
9222;SDS011;7557;51.698;3.942;2023-04-05T14:41:37;18.02;;;16.10;;
9222;SDS011;7557;51.698;3.942;2023-04-05T14:44:05;17.77;;;16.02;;
9222;SDS011;7557;51.698;3.942;2023-04-05T14:46:34;20.83;;;16.77;;
9222;SDS011;7557;51.698;3.942;2023-04-05T14:49:02;17.95;;;15.85;;
9222;SDS011;7557;51.698;3.942;2023-04-05T14:51:29;19.50;;;16.00;;
9222;SDS011;7557;51.698;3.942;2023-04-05T14:53:57;22.05;;;17.10;;
9222;SDS011;7557;51.698;3.942;2023-04-05T14:56:25;18.60;;;16.60;;
9222;SDS011;7557;51.698;3.942;2023-04-05T14:58:53;22.77;;;16.95;;
9222;SDS011;7557;51.698;3.942;2023-04-05T15:01:20;20.92;;;16.95;;
9222;SDS011;7557;51.698;3.942;2023-04-05T15:03:49;22.92;;;16.70;;
9222;SDS011;7557;51.698;3.942;2023-04-05T15:06:17;18.20;;;16.30;;